sensor_id;sensor_type;location;lat;lon;timestamp;pressure;altitude;pressure_sealevel;temperature;humidity
3544;BME280;1786;52.870;9.578;2023-07-29T00:01:23;99803.56;;;29.50;56.88
3544;BME280;1786;52.870;9.578;2023-07-29T00:03:50;99799.69;;;29.87;56.10
3544;BME280;1786;52.870;9.578;2023-07-29T00:06:17;99791.91;;;29.79;56.23
3544;BME280;1786;52.870;9.578;2023-07-29T00:08:44;99789.44;;;29.77;56.06
3544;BME280;1786;52.870;9.578;2023-07-29T00:11:10;99789.66;;;30.04;55.54
3544;BME280;1786;52.870;9.578;2023-07-29T00:13:37;99794.31;;;30.20;54.87
3544;BME280;1786;52.870;9.578;2023-07-29T00:16:03;99790.31;;;30.11;55.13
3544;BME280;1786;52.870;9.578;2023-07-29T00:18:30;99790.88;;;30.25;54.66
3544;BME280;1786;52.870;9.578;2023-07-29T00:20:57;99791.41;;;30.10;55.04
3544;BME280;1786;52.870;9.578;2023-07-29T00:23:24;99776.16;;;30.26;54.55
3544;BME280;1786;52.870;9.578;2023-07-29T00:25:51;99779.25;;;30.30;54.49
3544;BME280;1786;52.870;9.578;2023-07-29T00:28:18;99762.75;;;30.08;55.04
3544;BME280;1786;52.870;9.578;2023-07-29T00:30:49;99776.97;;;30.10;54.62
3544;BME280;1786;52.870;9.578;2023-07-29T00:33:15;99769.69;;;30.15;54.66
3544;BME280;1786;52.870;9.578;2023-07-29T00:35:42;99773.09;;;30.23;54.21
3544;BME280;1786;52.870;9.578;2023-07-29T00:38:09;99777.03;;;30.27;54.01
3544;BME280;1786;52.870;9.578;2023-07-29T00:40:37;99777.66;;;30.34;53.59
3544;BME280;1786;52.870;9.578;2023-07-29T00:43:04;99778.00;;;30.37;53.24
3544;BME280;1786;52.870;9.578;2023-07-29T00:45:32;99779.72;;;29.98;54.58
3544;BME280;1786;52.870;9.578;2023-07-29T00:48:00;99784.94;;;30.00;54.29
3544;BME280;1786;52.870;9.578;2023-07-29T00:50:30;99779.66;;;29.93;54.44
3544;BME280;1786;52.870;9.578;2023-07-29T00:52:59;99779.66;;;29.52;55.67
3544;BME280;1786;52.870;9.578;2023-07-29T00:55:26;99773.91;;;29.37;56.11
3544;BME280;1786;52.870;9.578;2023-07-29T00:57:54;99783.38;;;29.34;56.46
3544;BME280;1786;52.870;9.578;2023-07-29T01:00:21;99777.63;;;29.19;56.84
3544;BME280;1786;52.870;9.578;2023-07-29T01:02:49;99782.16;;;29.54;56.12
3544;BME280;1786;52.870;9.578;2023-07-29T01:05:16;99780.47;;;29.01;57.26
3544;BME280;1786;52.870;9.578;2023-07-29T01:13:01;99775.63;;;29.67;55.89
3544;BME280;1786;52.870;9.578;2023-07-29T01:15:33;99779.91;;;29.51;56.07
3544;BME280;1786;52.870;9.578;2023-07-29T01:18:05;99783.06;;;29.71;55.59
3544;BME280;1786;52.870;9.578;2023-07-29T01:20:34;99779.63;;;29.64;55.14
3544;BME280;1786;52.870;9.578;2023-07-29T01:23:03;99773.09;;;29.37;56.08
3544;BME280;1786;52.870;9.578;2023-07-29T01:25:30;99776.81;;;29.59;55.35
3544;BME280;1786;52.870;9.578;2023-07-29T01:27:58;99781.31;;;29.65;55.52
3544;BME280;1786;52.870;9.578;2023-07-29T01:30:37;99781.50;;;29.75;55.29
3544;BME280;1786;52.870;9.578;2023-07-29T01:33:18;99780.13;;;29.61;55.65
3544;BME280;1786;52.870;9.578;2023-07-29T01:35:50;99783.69;;;29.50;55.86
3544;BME280;1786;52.870;9.578;2023-07-29T01:38:20;99779.13;;;29.27;56.39
3544;BME280;1786;52.870;9.578;2023-07-29T01:40:49;99773.88;;;29.49;55.87
3544;BME280;1786;52.870;9.578;2023-07-29T01:43:17;99771.94;;;29.21;56.87
3544;BME280;1786;52.870;9.578;2023-07-29T01:45:45;99772.88;;;29.26;56.73
3544;BME280;1786;52.870;9.578;2023-07-29T01:48:12;99771.84;;;29.16;56.97
3544;BME280;1786;52.870;9.578;2023-07-29T01:50:39;99760.00;;;29.10;57.29
3544;BME280;1786;52.870;9.578;2023-07-29T01:53:06;99762.47;;;29.00;57.57
3544;BME280;1786;52.870;9.578;2023-07-29T01:55:33;99757.06;;;29.11;57.20
3544;BME280;1786;52.870;9.578;2023-07-29T01:58:00;99754.56;;;28.98;57.48
3544;BME280;1786;52.870;9.578;2023-07-29T02:00:27;99747.44;;;28.97;57.86
3544;BME280;1786;52.870;9.578;2023-07-29T02:02:54;99750.78;;;29.11;57.16
3544;BME280;1786;52.870;9.578;2023-07-29T02:05:21;99763.03;;;29.25;56.64
3544;BME280;1786;52.870;9.578;2023-07-29T02:07:47;99750.69;;;28.71;58.23
3544;BME280;1786;52.870;9.578;2023-07-29T02:10:14;99755.97;;;28.77;57.83
3544;BME280;1786;52.870;9.578;2023-07-29T02:12:41;99746.53;;;28.91;57.46
3544;BME280;1786;52.870;9.578;2023-07-29T02:15:08;99757.50;;;28.97;57.00
3544;BME280;1786;52.870;9.578;2023-07-29T02:17:36;99759.41;;;28.73;58.06
3544;BME280;1786;52.870;9.578;2023-07-29T02:20:04;99744.63;;;28.92;57.62
3544;BME280;1786;52.870;9.578;2023-07-29T02:22:32;99744.28;;;28.88;57.35
3544;BME280;1786;52.870;9.578;2023-07-29T02:24:59;99742.28;;;28.72;57.86
3544;BME280;1786;52.870;9.578;2023-07-29T02:27:26;99738.25;;;28.75;57.83
3544;BME280;1786;52.870;9.578;2023-07-29T02:29:54;99741.78;;;29.10;56.89
3544;BME280;1786;52.870;9.578;2023-07-29T02:32:21;99740.47;;;29.13;56.71
3544;BME280;1786;52.870;9.578;2023-07-29T02:34:48;99743.78;;;29.15;56.62
3544;BME280;1786;52.870;9.578;2023-07-29T02:37:15;99739.28;;;28.97;57.04
3544;BME280;1786;52.870;9.578;2023-07-29T02:39:42;99745.25;;;29.06;56.82
3544;BME280;1786;52.870;9.578;2023-07-29T02:42:09;99739.19;;;29.16;56.45
3544;BME280;1786;52.870;9.578;2023-07-29T02:44:36;99740.59;;;29.18;56.41
3544;BME280;1786;52.870;9.578;2023-07-29T02:47:03;99744.63;;;29.16;56.38
3544;BME280;1786;52.870;9.578;2023-07-29T02:49:29;99746.75;;;29.14;56.32
3544;BME280;1786;52.870;9.578;2023-07-29T02:51:56;99743.78;;;29.03;56.78
3544;BME280;1786;52.870;9.578;2023-07-29T02:54:23;99739.50;;;29.31;56.12
3544;BME280;1786;52.870;9.578;2023-07-29T02:56:50;99744.00;;;29.25;56.12
3544;BME280;1786;52.870;9.578;2023-07-29T02:59:17;99748.53;;;29.08;56.49
3544;BME280;1786;52.870;9.578;2023-07-29T03:01:43;99735.88;;;29.14;56.93
3544;BME280;1786;52.870;9.578;2023-07-29T03:04:10;99740.94;;;29.10;56.55
3544;BME280;1786;52.870;9.578;2023-07-29T03:06:39;99751.00;;;29.21;56.17
3544;BME280;1786;52.870;9.578;2023-07-29T03:09:06;99750.41;;;29.19;56.12
3544;BME280;1786;52.870;9.578;2023-07-29T03:11:33;99748.91;;;29.40;55.78
3544;BME280;1786;52.870;9.578;2023-07-29T03:13:59;99748.19;;;29.45;55.63
3544;BME280;1786;52.870;9.578;2023-07-29T03:16:28;99747.81;;;29.53;55.14
3544;BME280;1786;52.870;9.578;2023-07-29T03:18:57;99750.78;;;29.51;55.30
3544;BME280;1786;52.870;9.578;2023-07-29T03:21:24;99753.84;;;29.55;55.16
3544;BME280;1786;52.870;9.578;2023-07-29T03:23:51;99754.41;;;29.05;56.30
3544;BME280;1786;52.870;9.578;2023-07-29T03:26:18;99754.31;;;29.23;55.96
3544;BME280;1786;52.870;9.578;2023-07-29T03:28:44;99753.72;;;28.98;56.36
3544;BME280;1786;52.870;9.578;2023-07-29T03:31:11;99753.72;;;29.21;56.12
3544;BME280;1786;52.870;9.578;2023-07-29T03:33:38;99754.88;;;29.25;55.92
3544;BME280;1786;52.870;9.578;2023-07-29T03:36:05;99751.63;;;28.76;57.09
3544;BME280;1786;52.870;9.578;2023-07-29T03:38:32;99762.84;;;28.91;56.75
3544;BME280;1786;52.870;9.578;2023-07-29T03:41:02;99750.31;;;28.90;57.02
3544;BME280;1786;52.870;9.578;2023-07-29T03:43:29;99749.13;;;29.10;56.26
3544;BME280;1786;52.870;9.578;2023-07-29T03:45:58;99745.19;;;29.18;56.22
3544;BME280;1786;52.870;9.578;2023-07-29T03:48:25;99748.88;;;29.23;56.41
3544;BME280;1786;52.870;9.578;2023-07-29T03:50:52;99741.72;;;29.34;56.02
3544;BME280;1786;52.870;9.578;2023-07-29T03:53:18;99746.56;;;29.44;55.74
3544;BME280;1786;52.870;9.578;2023-07-29T03:55:45;99745.47;;;29.45;55.69
3544;BME280;1786;52.870;9.578;2023-07-29T03:58:12;99739.13;;;29.39;55.90
3544;BME280;1786;52.870;9.578;2023-07-29T04:00:39;99743.75;;;29.39;56.37
3544;BME280;1786;52.870;9.578;2023-07-29T04:03:05;99725.06;;;29.59;55.75
3544;BME280;1786;52.870;9.578;2023-07-29T04:05:33;99735.25;;;29.23;56.44
3544;BME280;1786;52.870;9.578;2023-07-29T04:07:59;99737.44;;;29.38;56.22
3544;BME280;1786;52.870;9.578;2023-07-29T04:10:26;99733.56;;;29.74;55.74
3544;BME280;1786;52.870;9.578;2023-07-29T04:12:53;99732.00;;;29.95;55.24
3544;BME280;1786;52.870;9.578;2023-07-29T04:15:20;99730.69;;;29.98;55.24
3544;BME280;1786;52.870;9.578;2023-07-29T04:17:46;99738.63;;;30.00;55.30
3544;BME280;1786;52.870;9.578;2023-07-29T04:20:13;99739.22;;;30.02;55.19
3544;BME280;1786;52.870;9.578;2023-07-29T04:22:40;99736.97;;;29.82;55.43
3544;BME280;1786;52.870;9.578;2023-07-29T04:25:07;99733.38;;;29.52;55.95
3544;BME280;1786;52.870;9.578;2023-07-29T04:27:34;99727.44;;;29.67;55.48
3544;BME280;1786;52.870;9.578;2023-07-29T04:30:00;99725.16;;;29.36;56.21
3544;BME280;1786;52.870;9.578;2023-07-29T04:32:27;99722.25;;;29.54;55.75
3544;BME280;1786;52.870;9.578;2023-07-29T04:34:54;99725.06;;;29.59;55.74
3544;BME280;1786;52.870;9.578;2023-07-29T04:37:21;99726.97;;;29.59;55.75
3544;BME280;1786;52.870;9.578;2023-07-29T04:39:48;99725.91;;;29.31;56.73
3544;BME280;1786;52.870;9.578;2023-07-29T04:42:14;99733.88;;;29.09;57.02
3544;BME280;1786;52.870;9.578;2023-07-29T04:44:42;99723.69;;;29.45;56.17
3544;BME280;1786;52.870;9.578;2023-07-29T04:47:09;99721.69;;;29.40;56.13
3544;BME280;1786;52.870;9.578;2023-07-29T04:49:36;99717.94;;;29.70;55.88
3544;BME280;1786;52.870;9.578;2023-07-29T04:52:03;99714.69;;;29.56;56.07
3544;BME280;1786;52.870;9.578;2023-07-29T04:54:30;99715.97;;;29.25;57.10
3544;BME280;1786;52.870;9.578;2023-07-29T04:56:57;99725.00;;;29.42;56.47
3544;BME280;1786;52.870;9.578;2023-07-29T04:59:24;99724.00;;;29.31;56.83
3544;BME280;1786;52.870;9.578;2023-07-29T05:01:51;99719.44;;;28.97;57.74
3544;BME280;1786;52.870;9.578;2023-07-29T05:04:21;99719.44;;;28.97;57.79
3544;BME280;1786;52.870;9.578;2023-07-29T05:06:48;99710.81;;;29.40;57.05
3544;BME280;1786;52.870;9.578;2023-07-29T05:09:16;99707.19;;;29.23;57.36
3544;BME280;1786;52.870;9.578;2023-07-29T05:11:44;99704.53;;;29.11;57.55
3544;BME280;1786;52.870;9.578;2023-07-29T05:14:14;99701.31;;;29.02;57.62
3544;BME280;1786;52.870;9.578;2023-07-29T05:16:42;99694.75;;;29.39;57.02
3544;BME280;1786;52.870;9.578;2023-07-29T05:19:09;99703.25;;;29.71;56.36
3544;BME280;1786;52.870;9.578;2023-07-29T05:21:37;99706.06;;;29.76;56.61
3544;BME280;1786;52.870;9.578;2023-07-29T05:24:04;99696.38;;;29.68;56.61
3544;BME280;1786;52.870;9.578;2023-07-29T05:26:31;99706.91;;;29.93;56.15
3544;BME280;1786;52.870;9.578;2023-07-29T05:28:57;99704.94;;;30.23;56.08
3544;BME280;1786;52.870;9.578;2023-07-29T05:31:24;99710.50;;;30.45;55.88
3544;BME280;1786;52.870;9.578;2023-07-29T05:33:51;99717.28;;;30.98;55.75
3544;BME280;1786;52.870;9.578;2023-07-29T05:36:18;99713.66;;;31.36;55.91
3544;BME280;1786;52.870;9.578;2023-07-29T05:38:45;99705.03;;;31.72;54.20
3544;BME280;1786;52.870;9.578;2023-07-29T05:41:12;99699.53;;;32.26;53.11
3544;BME280;1786;52.870;9.578;2023-07-29T05:43:38;99694.41;;;32.02;51.45
3544;BME280;1786;52.870;9.578;2023-07-29T05:46:06;99698.59;;;31.56;51.78
3544;BME280;1786;52.870;9.578;2023-07-29T05:48:33;99700.19;;;31.79;51.85
3544;BME280;1786;52.870;9.578;2023-07-29T05:51:02;99693.38;;;32.08;51.91
3544;BME280;1786;52.870;9.578;2023-07-29T05:53:29;99689.41;;;32.26;51.93
3544;BME280;1786;52.870;9.578;2023-07-29T05:55:55;99693.28;;;32.73;52.71
3544;BME280;1786;52.870;9.578;2023-07-29T05:58:22;99696.25;;;33.09;51.21
3544;BME280;1786;52.870;9.578;2023-07-29T06:00:49;99687.19;;;33.08;49.91
3544;BME280;1786;52.870;9.578;2023-07-29T06:03:18;99690.88;;;33.50;49.94
3544;BME280;1786;52.870;9.578;2023-07-29T06:05:45;99683.22;;;33.52;48.57
3544;BME280;1786;52.870;9.578;2023-07-29T06:08:12;99690.72;;;34.08;49.01
3544;BME280;1786;52.870;9.578;2023-07-29T06:10:38;99695.88;;;34.04;48.21
3544;BME280;1786;52.870;9.578;2023-07-29T06:13:05;99697.22;;;33.71;48.15
3544;BME280;1786;52.870;9.578;2023-07-29T06:15:33;99697.53;;;33.85;48.61
3544;BME280;1786;52.870;9.578;2023-07-29T06:17:59;99702.72;;;33.81;48.66
3544;BME280;1786;52.870;9.578;2023-07-29T06:20:26;99706.56;;;33.70;48.68
3544;BME280;1786;52.870;9.578;2023-07-29T06:22:53;99707.94;;;33.88;48.52
3544;BME280;1786;52.870;9.578;2023-07-29T06:25:20;99706.19;;;33.51;48.79
3544;BME280;1786;52.870;9.578;2023-07-29T06:27:46;99705.13;;;33.52;48.64
3544;BME280;1786;52.870;9.578;2023-07-29T06:30:13;99706.41;;;33.29;49.57
3544;BME280;1786;52.870;9.578;2023-07-29T06:32:40;99712.91;;;33.07;49.92
3544;BME280;1786;52.870;9.578;2023-07-29T06:35:07;99715.38;;;32.56;50.04
3544;BME280;1786;52.870;9.578;2023-07-29T06:37:34;99709.22;;;32.44;51.05
3544;BME280;1786;52.870;9.578;2023-07-29T06:40:00;99710.41;;;32.16;51.59
3544;BME280;1786;52.870;9.578;2023-07-29T06:42:27;99712.88;;;32.22;51.85
3544;BME280;1786;52.870;9.578;2023-07-29T06:44:54;99710.50;;;31.72;52.24
3544;BME280;1786;52.870;9.578;2023-07-29T06:47:20;99714.31;;;31.43;53.30
3544;BME280;1786;52.870;9.578;2023-07-29T06:49:47;99709.59;;;31.61;53.04
3544;BME280;1786;52.870;9.578;2023-07-29T06:52:14;99714.84;;;31.95;52.56
3544;BME280;1786;52.870;9.578;2023-07-29T06:54:41;99708.84;;;31.43;53.30
3544;BME280;1786;52.870;9.578;2023-07-29T06:57:08;99706.44;;;31.25;54.33
3544;BME280;1786;52.870;9.578;2023-07-29T06:59:35;99711.75;;;31.59;53.36
3544;BME280;1786;52.870;9.578;2023-07-29T07:02:02;99718.72;;;31.50;54.09
3544;BME280;1786;52.870;9.578;2023-07-29T07:04:28;99710.19;;;31.41;53.54
3544;BME280;1786;52.870;9.578;2023-07-29T07:06:55;99709.44;;;31.45;53.81
3544;BME280;1786;52.870;9.578;2023-07-29T07:09:22;99708.19;;;31.36;54.49
3544;BME280;1786;52.870;9.578;2023-07-29T07:11:49;99714.41;;;31.32;54.14
3544;BME280;1786;52.870;9.578;2023-07-29T07:14:16;99706.09;;;31.65;53.84
3544;BME280;1786;52.870;9.578;2023-07-29T07:16:43;99717.00;;;31.38;54.13
3544;BME280;1786;52.870;9.578;2023-07-29T07:19:10;99719.38;;;31.57;53.85
3544;BME280;1786;52.870;9.578;2023-07-29T07:21:37;99716.56;;;30.69;55.49
3544;BME280;1786;52.870;9.578;2023-07-29T07:24:04;99714.81;;;30.96;54.74
3544;BME280;1786;52.870;9.578;2023-07-29T07:26:30;99718.34;;;31.19;54.86
3544;BME280;1786;52.870;9.578;2023-07-29T07:28:57;99717.34;;;31.25;55.04
3544;BME280;1786;52.870;9.578;2023-07-29T07:31:24;99713.88;;;31.35;55.14
3544;BME280;1786;52.870;9.578;2023-07-29T07:33:50;99712.56;;;31.86;54.09
3544;BME280;1786;52.870;9.578;2023-07-29T07:36:17;99712.16;;;32.00;53.37
3544;BME280;1786;52.870;9.578;2023-07-29T07:38:44;99717.97;;;32.08;53.55
3544;BME280;1786;52.870;9.578;2023-07-29T07:41:10;99715.03;;;31.88;53.16
3544;BME280;1786;52.870;9.578;2023-07-29T07:43:37;99708.31;;;31.96;53.46
3544;BME280;1786;52.870;9.578;2023-07-29T07:46:03;99698.84;;;32.08;53.03
3544;BME280;1786;52.870;9.578;2023-07-29T07:48:31;99699.19;;;32.17;53.16
3544;BME280;1786;52.870;9.578;2023-07-29T07:51:00;99713.88;;;32.43;53.48
3544;BME280;1786;52.870;9.578;2023-07-29T07:53:35;99716.16;;;32.19;53.65
3544;BME280;1786;52.870;9.578;2023-07-29T07:56:02;99717.56;;;31.95;53.60
3544;BME280;1786;52.870;9.578;2023-07-29T07:58:29;99712.53;;;32.08;53.44
3544;BME280;1786;52.870;9.578;2023-07-29T08:01:05;99712.56;;;32.14;53.90
3544;BME280;1786;52.870;9.578;2023-07-29T08:03:34;99721.13;;;31.95;53.68
3544;BME280;1786;52.870;9.578;2023-07-29T08:06:02;99726.06;;;31.71;54.12
3544;BME280;1786;52.870;9.578;2023-07-29T08:08:29;99729.78;;;31.60;54.06
3544;BME280;1786;52.870;9.578;2023-07-29T08:10:58;99715.28;;;31.86;53.42
3544;BME280;1786;52.870;9.578;2023-07-29T08:13:25;99710.44;;;32.21;52.81
3544;BME280;1786;52.870;9.578;2023-07-29T08:15:52;99711.34;;;31.99;53.18
3544;BME280;1786;52.870;9.578;2023-07-29T08:18:19;99710.13;;;32.17;53.06
3544;BME280;1786;52.870;9.578;2023-07-29T08:20:57;99710.22;;;32.32;52.83
3544;BME280;1786;52.870;9.578;2023-07-29T08:23:25;99717.78;;;32.52;52.86
3544;BME280;1786;52.870;9.578;2023-07-29T08:25:53;99709.97;;;32.34;52.70
3544;BME280;1786;52.870;9.578;2023-07-29T08:28:23;99720.84;;;32.56;52.51
3544;BME280;1786;52.870;9.578;2023-07-29T08:30:50;99717.69;;;32.42;52.65
3544;BME280;1786;52.870;9.578;2023-07-29T08:33:17;99720.34;;;32.69;52.17
3544;BME280;1786;52.870;9.578;2023-07-29T08:35:44;99722.59;;;32.78;51.78
3544;BME280;1786;52.870;9.578;2023-07-29T08:38:11;99708.66;;;32.42;52.25
3544;BME280;1786;52.870;9.578;2023-07-29T08:40:42;99712.09;;;32.59;52.20
3544;BME280;1786;52.870;9.578;2023-07-29T08:43:10;99701.41;;;32.58;52.03
3544;BME280;1786;52.870;9.578;2023-07-29T08:45:39;99697.97;;;32.40;52.53
3544;BME280;1786;52.870;9.578;2023-07-29T08:48:08;99690.03;;;32.33;52.24
3544;BME280;1786;52.870;9.578;2023-07-29T08:50:36;99692.66;;;32.18;53.88
3544;BME280;1786;52.870;9.578;2023-07-29T08:53:04;99705.84;;;32.64;53.65
3544;BME280;1786;52.870;9.578;2023-07-29T08:55:34;99703.72;;;32.39;53.06
3544;BME280;1786;52.870;9.578;2023-07-29T08:58:01;99698.91;;;32.51;53.51
3544;BME280;1786;52.870;9.578;2023-07-29T09:00:28;99699.97;;;32.97;52.63
3544;BME280;1786;52.870;9.578;2023-07-29T09:02:54;99699.84;;;33.25;52.49
3544;BME280;1786;52.870;9.578;2023-07-29T09:05:22;99707.72;;;33.16;51.31
3544;BME280;1786;52.870;9.578;2023-07-29T09:07:51;99707.00;;;33.41;51.59
3544;BME280;1786;52.870;9.578;2023-07-29T09:10:25;99707.47;;;33.12;52.21
3544;BME280;1786;52.870;9.578;2023-07-29T09:12:53;99705.03;;;33.31;51.00
3544;BME280;1786;52.870;9.578;2023-07-29T09:15:30;99701.00;;;33.49;51.64
3544;BME280;1786;52.870;9.578;2023-07-29T09:17:58;99705.19;;;33.62;51.27
3544;BME280;1786;52.870;9.578;2023-07-29T09:20:28;99686.16;;;33.25;50.20
3544;BME280;1786;52.870;9.578;2023-07-29T09:22:58;99698.28;;;33.49;50.36
3544;BME280;1786;52.870;9.578;2023-07-29T09:25:26;99690.06;;;33.49;50.89
3544;BME280;1786;52.870;9.578;2023-07-29T09:27:59;99693.03;;;33.37;50.32
3544;BME280;1786;52.870;9.578;2023-07-29T09:30:27;99692.69;;;33.18;51.14
3544;BME280;1786;52.870;9.578;2023-07-29T09:32:58;99696.03;;;33.36;50.42
3544;BME280;1786;52.870;9.578;2023-07-29T09:35:29;99698.22;;;33.34;50.66
3544;BME280;1786;52.870;9.578;2023-07-29T09:37:56;99699.69;;;33.67;50.58
3544;BME280;1786;52.870;9.578;2023-07-29T09:40:23;99701.34;;;33.68;49.78
3544;BME280;1786;52.870;9.578;2023-07-29T09:42:51;99696.69;;;33.74;48.64
3544;BME280;1786;52.870;9.578;2023-07-29T09:45:23;99701.06;;;33.70;48.73
3544;BME280;1786;52.870;9.578;2023-07-29T09:47:54;99693.69;;;33.96;48.29
3544;BME280;1786;52.870;9.578;2023-07-29T09:50:26;99692.09;;;34.10;49.18
3544;BME280;1786;52.870;9.578;2023-07-29T09:52:55;99696.44;;;34.32;48.48
3544;BME280;1786;52.870;9.578;2023-07-29T09:55:22;99700.31;;;34.15;47.97
3544;BME280;1786;52.870;9.578;2023-07-29T09:57:57;99702.22;;;34.25;47.24
3544;BME280;1786;52.870;9.578;2023-07-29T10:00:28;99700.56;;;34.19;47.20
3544;BME280;1786;52.870;9.578;2023-07-29T10:02:56;99697.81;;;34.09;47.69
3544;BME280;1786;52.870;9.578;2023-07-29T10:05:25;99697.25;;;34.22;47.42
3544;BME280;1786;52.870;9.578;2023-07-29T10:07:53;99693.16;;;34.40;47.17
3544;BME280;1786;52.870;9.578;2023-07-29T10:10:20;99707.13;;;34.38;47.35
3544;BME280;1786;52.870;9.578;2023-07-29T10:12:48;99709.84;;;34.54;46.36
3544;BME280;1786;52.870;9.578;2023-07-29T10:15:17;99704.63;;;34.47;46.74
3544;BME280;1786;52.870;9.578;2023-07-29T10:17:45;99698.38;;;34.26;47.09
3544;BME280;1786;52.870;9.578;2023-07-29T10:20:15;99687.91;;;34.54;47.63
3544;BME280;1786;52.870;9.578;2023-07-29T10:22:43;99690.09;;;34.67;47.39
3544;BME280;1786;52.870;9.578;2023-07-29T10:25:17;99689.53;;;34.75;47.21
3544;BME280;1786;52.870;9.578;2023-07-29T10:27:57;99695.53;;;34.82;47.75
3544;BME280;1786;52.870;9.578;2023-07-29T10:30:28;99691.34;;;34.95;46.73
3544;BME280;1786;52.870;9.578;2023-07-29T10:32:58;99696.84;;;35.10;45.55
3544;BME280;1786;52.870;9.578;2023-07-29T10:35:25;99695.97;;;35.05;45.54
3544;BME280;1786;52.870;9.578;2023-07-29T10:37:52;99697.09;;;35.04;45.42
3544;BME280;1786;52.870;9.578;2023-07-29T10:40:20;99696.56;;;35.02;45.98
3544;BME280;1786;52.870;9.578;2023-07-29T10:43:09;99714.13;;;35.01;45.94
3544;BME280;1786;52.870;9.578;2023-07-29T10:45:38;99702.31;;;35.10;46.15
3544;BME280;1786;52.870;9.578;2023-07-29T10:48:09;99700.75;;;34.84;47.22
3544;BME280;1786;52.870;9.578;2023-07-29T10:50:37;99696.53;;;35.07;48.31
3544;BME280;1786;52.870;9.578;2023-07-29T10:53:04;99705.63;;;35.62;46.58
3544;BME280;1786;52.870;9.578;2023-07-29T10:55:35;99688.25;;;36.11;45.42
3544;BME280;1786;52.870;9.578;2023-07-29T10:58:14;99689.84;;;36.71;43.85
3544;BME280;1786;52.870;9.578;2023-07-29T11:00:45;99682.09;;;36.97;43.27
3544;BME280;1786;52.870;9.578;2023-07-29T11:03:13;99675.69;;;36.58;41.74
3544;BME280;1786;52.870;9.578;2023-07-29T11:05:51;99680.09;;;37.08;42.30
3544;BME280;1786;52.870;9.578;2023-07-29T11:08:28;99684.09;;;36.91;42.43
3544;BME280;1786;52.870;9.578;2023-07-29T11:11:04;99676.66;;;36.92;42.14
3544;BME280;1786;52.870;9.578;2023-07-29T11:13:33;99671.47;;;37.71;42.30
3544;BME280;1786;52.870;9.578;2023-07-29T11:16:00;99678.81;;;37.19;42.62
3544;BME280;1786;52.870;9.578;2023-07-29T11:18:32;99668.53;;;37.24;42.09
3544;BME280;1786;52.870;9.578;2023-07-29T11:21:03;99676.72;;;37.86;40.89
3544;BME280;1786;52.870;9.578;2023-07-29T11:23:35;99690.44;;;38.57;41.10
3544;BME280;1786;52.870;9.578;2023-07-29T11:26:03;99694.06;;;38.39;39.27
3544;BME280;1786;52.870;9.578;2023-07-29T11:28:30;99683.28;;;37.91;39.33
3544;BME280;1786;52.870;9.578;2023-07-29T11:30:57;99686.56;;;37.36;40.00
3544;BME280;1786;52.870;9.578;2023-07-29T11:33:25;99693.66;;;36.46;40.90
3544;BME280;1786;52.870;9.578;2023-07-29T11:35:54;99692.31;;;36.43;41.27
3544;BME280;1786;52.870;9.578;2023-07-29T11:38:22;99680.38;;;35.94;43.31
3544;BME280;1786;52.870;9.578;2023-07-29T11:40:58;99686.59;;;36.10;42.42
3544;BME280;1786;52.870;9.578;2023-07-29T11:43:25;99684.53;;;36.79;42.49
3544;BME280;1786;52.870;9.578;2023-07-29T11:45:53;99683.50;;;36.94;41.76
3544;BME280;1786;52.870;9.578;2023-07-29T11:48:33;99682.84;;;37.45;40.64
3544;BME280;1786;52.870;9.578;2023-07-29T11:51:00;99681.13;;;37.31;39.87
3544;BME280;1786;52.870;9.578;2023-07-29T11:53:29;99684.03;;;37.39;40.00
3544;BME280;1786;52.870;9.578;2023-07-29T11:55:57;99680.81;;;37.32;40.36
3544;BME280;1786;52.870;9.578;2023-07-29T11:58:25;99687.31;;;36.98;40.75
3544;BME280;1786;52.870;9.578;2023-07-29T12:00:52;99688.50;;;37.16;39.53
3544;BME280;1786;52.870;9.578;2023-07-29T12:03:19;99684.97;;;36.87;39.49
3544;BME280;1786;52.870;9.578;2023-07-29T12:05:48;99682.59;;;36.56;39.87
3544;BME280;1786;52.870;9.578;2023-07-29T12:08:15;99692.84;;;36.74;39.54
3544;BME280;1786;52.870;9.578;2023-07-29T12:10:42;99688.81;;;37.15;39.38
3544;BME280;1786;52.870;9.578;2023-07-29T12:13:09;99692.97;;;37.12;38.77
3544;BME280;1786;52.870;9.578;2023-07-29T12:15:38;99701.09;;;36.98;38.96
3544;BME280;1786;52.870;9.578;2023-07-29T12:18:05;99710.53;;;36.92;38.01
3544;BME280;1786;52.870;9.578;2023-07-29T12:20:32;99703.03;;;35.31;39.18
3544;BME280;1786;52.870;9.578;2023-07-29T12:23:00;99701.41;;;35.75;37.68
3544;BME280;1786;52.870;9.578;2023-07-29T12:25:32;99710.94;;;35.88;37.99
3544;BME280;1786;52.870;9.578;2023-07-29T12:28:05;99705.22;;;35.84;38.74
3544;BME280;1786;52.870;9.578;2023-07-29T12:30:33;99703.00;;;36.21;38.36
3544;BME280;1786;52.870;9.578;2023-07-29T12:33:00;99711.34;;;35.71;39.41
3544;BME280;1786;52.870;9.578;2023-07-29T12:35:37;99708.97;;;35.93;39.73
3544;BME280;1786;52.870;9.578;2023-07-29T12:38:04;99715.31;;;35.94;38.43
3544;BME280;1786;52.870;9.578;2023-07-29T12:40:30;99709.91;;;36.18;38.37
3544;BME280;1786;52.870;9.578;2023-07-29T12:42:57;99710.50;;;35.70;38.67
3544;BME280;1786;52.870;9.578;2023-07-29T12:45:24;99706.00;;;36.24;38.59
3544;BME280;1786;52.870;9.578;2023-07-29T12:47:55;99707.78;;;36.39;38.31
3544;BME280;1786;52.870;9.578;2023-07-29T12:50:22;99711.47;;;36.53;37.05
3544;BME280;1786;52.870;9.578;2023-07-29T12:52:49;99705.59;;;36.89;37.12
3544;BME280;1786;52.870;9.578;2023-07-29T12:55:15;99703.50;;;37.48;35.83
3544;BME280;1786;52.870;9.578;2023-07-29T12:57:47;99701.03;;;37.46;36.15
3544;BME280;1786;52.870;9.578;2023-07-29T13:00:14;99709.59;;;37.26;35.24
3544;BME280;1786;52.870;9.578;2023-07-29T13:02:42;99691.44;;;37.25;36.33
3544;BME280;1786;52.870;9.578;2023-07-29T13:05:10;99699.81;;;36.67;35.93
3544;BME280;1786;52.870;9.578;2023-07-29T13:07:42;99693.56;;;36.85;35.84
3544;BME280;1786;52.870;9.578;2023-07-29T13:10:10;99692.59;;;37.19;35.47
3544;BME280;1786;52.870;9.578;2023-07-29T13:12:37;99695.19;;;37.10;34.78
3544;BME280;1786;52.870;9.578;2023-07-29T13:15:04;99695.19;;;37.10;34.56
3544;BME280;1786;52.870;9.578;2023-07-29T13:17:31;99687.50;;;36.83;35.56
3544;BME280;1786;52.870;9.578;2023-07-29T13:19:58;99692.13;;;37.12;35.09
3544;BME280;1786;52.870;9.578;2023-07-29T13:22:25;99688.69;;;36.77;35.11
3544;BME280;1786;52.870;9.578;2023-07-29T13:24:51;99690.72;;;37.14;34.59
3544;BME280;1786;52.870;9.578;2023-07-29T13:27:18;99686.28;;;37.37;34.71
3544;BME280;1786;52.870;9.578;2023-07-29T13:29:45;99677.94;;;37.42;34.11
3544;BME280;1786;52.870;9.578;2023-07-29T13:32:13;99685.81;;;38.06;35.20